Time;durP1;ratioP1;P1;durP2;ratioP2;P2;SDS_P1;SDS_P2;PMS_P1;PMS_P2;Temp;Humidity;BMP_temperature;BMP_pressure;BME280_temperature;BME280_humidity;BME280_pressure;Samples;Min_cycle;Max_cycle;Signal;HPM_P1;HPM_P2
2022/12/20 00:01:27;;;;;;;0.40;0.40;;;14.40;70.50;;;;;;4973645;28;20227;-60
2022/12/20 00:04:15;;;;;;;0.40;0.40;;;14.40;70.50;;;;;;4974453;28;20583;-60
2022/12/20 00:07:05;;;;;;;0.40;0.40;;;14.40;70.50;;;;;;4974402;28;20238;-60
2022/12/20 00:09:53;;;;;;;0.50;0.50;;;14.40;70.50;;;;;;4973443;28;20208;-60
2022/12/20 00:12:41;;;;;;;0.40;0.40;;;14.40;70.50;;;;;;4973727;28;20271;-60
2022/12/20 00:15:30;;;;;;;0.40;0.40;;;14.30;70.10;;;;;;4973602;28;20283;-60
2022/12/20 00:18:18;;;;;;;0.40;0.40;;;14.30;70.50;;;;;;4974222;28;20230;-62
2022/12/20 00:21:08;;;;;;;0.40;0.40;;;14.30;70.50;;;;;;4973782;28;20291;-62
2022/12/20 00:23:58;;;;;;;0.40;0.40;;;14.30;70.50;;;;;;4973923;28;20203;-61
2022/12/20 00:26:46;;;;;;;0.40;0.40;;;14.30;70.50;;;;;;4973319;28;20461;-60
2022/12/20 00:29:34;;;;;;;0.40;0.40;;;14.20;71.30;;;;;;4973907;28;20286;-60
2022/12/20 00:32:23;;;;;;;0.40;0.40;;;14.30;70.80;;;;;;4973700;28;20216;-61
2022/12/20 00:35:11;;;;;;;0.40;0.40;;;14.10;70.70;;;;;;4974056;28;20279;-61
2022/12/20 00:37:59;;;;;;;0.40;0.40;;;14.10;70.90;;;;;;4974351;28;20203;-60
2022/12/20 00:40:59;;;;;;;0.40;0.40;;;14.10;71.00;;;;;;4973769;28;20771;-60
2022/12/20 00:43:48;;;;;;;0.40;0.40;;;14.00;71.10;;;;;;4975846;28;20227;-61
2022/12/20 00:46:36;;;;;;;0.40;0.40;;;14.00;71.20;;;;;;4978122;28;20231;-60
2022/12/20 00:49:24;;;;;;;0.40;0.40;;;14.00;71.40;;;;;;4977337;28;20216;-60
2022/12/20 00:52:12;;;;;;;0.40;0.40;;;14.10;71.50;;;;;;4984520;28;20211;-61
2022/12/20 00:55:00;;;;;;;3.43;1.57;;;14.20;71.40;;;;;;4993215;28;20255;-60
2022/12/20 00:57:49;;;;;;;0.43;0.43;;;14.20;71.20;;;;;;4993071;28;20207;-63
2022/12/20 01:00:38;;;;;;;0.40;0.40;;;14.40;71.20;;;;;;4982329;28;20208;-60
2022/12/20 01:03:26;;;;;;;0.40;0.40;;;14.30;71.00;;;;;;4977538;28;20215;-60
2022/12/20 01:06:15;;;;;;;0.40;0.40;;;14.40;71.00;;;;;;4978440;28;20286;-60
2022/12/20 01:09:03;;;;;;;0.95;0.95;;;14.40;70.90;;;;;;4977176;28;20231;-60
2022/12/20 01:11:52;;;;;;;2.25;1.23;;;14.50;71.00;;;;;;4977753;28;20282;-60
2022/12/20 01:14:41;;;;;;;0.40;0.40;;;14.50;70.90;;;;;;4977516;28;20310;-61
2022/12/20 01:17:29;;;;;;;0.80;0.80;;;15.30;71.60;;;;;;4977190;28;20224;-60
2022/12/20 01:20:18;;;;;;;0.40;0.40;;;14.60;70.80;;;;;;4976004;28;20196;-60
2022/12/20 01:23:06;;;;;;;0.40;0.40;;;14.50;70.80;;;;;;4977205;28;20532;-60
2022/12/20 01:25:54;;;;;;;1.45;1.45;;;14.50;70.80;;;;;;4976447;28;20224;-60
2022/12/20 01:28:44;;;;;;;0.40;0.40;;;14.50;71.60;;;;;;4977154;28;20798;-60
2022/12/20 01:31:34;;;;;;;0.40;0.40;;;14.50;70.80;;;;;;4977259;28;20204;-61
2022/12/20 01:34:23;;;;;;;0.40;0.40;;;14.40;70.80;;;;;;4976537;28;20630;-60
2022/12/20 01:37:11;;;;;;;0.50;0.50;;;14.40;70.40;;;;;;4977115;28;20220;-60
2022/12/20 01:39:59;;;;;;;0.40;0.40;;;14.40;71.10;;;;;;4976526;28;20627;-60
2022/12/20 01:42:47;;;;;;;0.40;0.40;;;14.30;71.20;;;;;;4977081;28;20743;-60
2022/12/20 01:45:35;;;;;;;0.40;0.40;;;14.30;71.20;;;;;;4976920;28;20281;-60
2022/12/20 01:48:26;;;;;;;0.40;0.40;;;14.20;71.20;;;;;;4975255;28;20262;-60
2022/12/20 01:51:14;;;;;;;0.40;0.40;;;14.20;71.30;;;;;;4975905;28;20243;-60
2022/12/20 01:54:08;;;;;;;0.40;0.40;;;14.10;71.40;;;;;;4976182;28;20313;-60
2022/12/20 01:57:00;;;;;;;0.40;0.40;;;14.10;71.40;;;;;;4976082;28;20279;-60
2022/12/20 01:59:50;;;;;;;0.40;0.40;;;14.10;71.60;;;;;;4975985;28;20278;-60
2022/12/20 02:02:39;;;;;;;0.40;0.40;;;14.00;71.60;;;;;;4976906;28;20212;-60
2022/12/20 02:05:34;;;;;;;0.40;0.40;;;14.00;72.20;;;;;;4971445;28;20207;-60
2022/12/20 02:08:22;;;;;;;0.40;0.40;;;14.00;71.90;;;;;;4955203;29;20719;-60
2022/12/20 02:11:22;;;;;;;0.40;0.40;;;14.10;72.00;;;;;;4956377;29;20232;-60
2022/12/20 02:14:20;;;;;;;0.40;0.40;;;14.10;71.90;;;;;;4956620;29;20350;-60
2022/12/20 02:17:17;;;;;;;0.40;0.40;;;14.20;71.80;;;;;;4956678;28;20275;-60
2022/12/20 02:20:49;;;;;;;0.40;0.40;;;14.30;71.60;;;;;;4956080;28;20205;-60
2022/12/20 02:24:24;;;;;;;0.40;0.40;;;14.40;71.50;;;;;;4956580;29;20193;-60
2022/12/20 02:27:39;;;;;;;0.40;0.40;;;14.50;71.30;;;;;;4955275;28;20248;-60
2022/12/20 02:30:32;;;;;;;0.40;0.40;;;14.50;71.20;;;;;;4956176;29;20208;-60
2022/12/20 02:33:24;;;;;;;0.50;0.50;;;14.50;71.10;;;;;;4956496;29;20694;-61
2022/12/20 02:36:14;;;;;;;0.40;0.40;;;14.60;71.10;;;;;;4956391;28;20248;-61
2022/12/20 02:39:02;;;;;;;6.72;4.53;;;14.60;71.10;;;;;;4956950;29;20331;-61
2022/12/20 02:41:54;;;;;;;0.40;0.40;;;14.60;70.90;;;;;;4957357;29;20233;-60
2022/12/20 02:48:03;;;;;;;0.40;0.40;;;14.60;70.90;;;;;;4955490;29;20235;-60
2022/12/20 02:50:56;;;;;;;0.40;0.40;;;14.60;70.90;;;;;;4955685;29;20201;-61
2022/12/20 02:53:44;;;;;;;0.40;0.40;;;14.60;71.00;;;;;;4956044;29;20303;-60
2022/12/20 02:56:35;;;;;;;0.40;0.40;;;14.50;71.00;;;;;;4955882;28;20216;-60
2022/12/20 02:59:27;;;;;;;0.40;0.40;;;14.50;71.10;;;;;;4955808;29;20248;-60
2022/12/20 03:02:15;;;;;;;0.40;0.40;;;14.50;71.10;;;;;;4955949;29;20287;-61
2022/12/20 03:05:06;;;;;;;0.40;0.40;;;14.40;71.10;;;;;;4955785;29;20233;-60
2022/12/20 03:07:55;;;;;;;0.40;0.40;;;14.40;71.20;;;;;;4955590;29;20212;-61
2022/12/20 03:10:43;;;;;;;0.40;0.40;;;14.40;71.20;;;;;;4955556;29;20665;-61
2022/12/20 03:13:31;;;;;;;0.40;0.40;;;14.40;71.50;;;;;;4955633;29;20201;-60
2022/12/20 03:16:24;;;;;;;0.40;0.40;;;14.40;71.40;;;;;;4955416;28;20709;-60
2022/12/20 03:19:12;;;;;;;0.40;0.40;;;14.40;71.60;;;;;;4955232;29;20205;-61
2022/12/20 03:22:02;;;;;;;0.40;0.40;;;14.40;71.50;;;;;;4955526;29;20287;-60
2022/12/20 03:24:50;;;;;;;0.40;0.40;;;14.30;71.50;;;;;;4955641;29;20200;-60
2022/12/20 03:27:38;;;;;;;0.40;0.40;;;14.30;71.80;;;;;;4955486;29;20213;-60
2022/12/20 03:30:26;;;;;;;0.40;0.40;;;14.20;71.80;;;;;;4954936;29;20236;-60
2022/12/20 03:33:14;;;;;;;0.40;0.40;;;14.20;71.80;;;;;;4955013;29;20332;-60
2022/12/20 03:36:02;;;;;;;0.40;0.40;;;14.20;72.00;;;;;;4955316;28;20727;-60
2022/12/20 03:38:53;;;;;;;0.40;0.40;;;14.20;72.10;;;;;;4955652;29;20212;-61
2022/12/20 03:41:41;;;;;;;0.40;0.40;;;14.20;72.20;;;;;;4955314;29;20197;-60
2022/12/20 03:44:30;;;;;;;0.40;0.40;;;14.10;72.10;;;;;;4955176;29;20201;-60
2022/12/20 03:47:18;;;;;;;0.40;0.40;;;14.10;72.20;;;;;;4954880;28;20732;-61
2022/12/20 03:50:07;;;;;;;0.40;0.40;;;14.10;72.20;;;;;;4954546;29;20264;-60
2022/12/20 03:52:55;;;;;;;0.50;0.50;;;14.10;72.30;;;;;;4954186;29;20204;-60
2022/12/20 03:55:44;;;;;;;0.70;0.70;;;14.10;72.40;;;;;;4954688;28;20233;-60
2022/12/20 03:58:32;;;;;;;0.40;0.40;;;14.00;72.40;;;;;;4954734;29;20208;-61
2022/12/20 04:01:23;;;;;;;0.40;0.40;;;14.00;72.70;;;;;;4954994;29;20312;-61
2022/12/20 04:04:13;;;;;;;0.40;0.40;;;14.00;72.70;;;;;;4954651;29;20289;-60
2022/12/20 04:07:01;;;;;;;0.40;0.40;;;14.00;72.60;;;;;;4968437;28;20234;-60
2022/12/20 04:09:50;;;;;;;0.40;0.40;;;14.00;72.60;;;;;;4973760;28;20212;-60
2022/12/20 04:12:40;;;;;;;0.40;0.40;;;14.00;73.40;;;;;;4973911;28;20199;-60
2022/12/20 04:15:28;;;;;;;0.40;0.40;;;14.00;82.10;;;;;;4973931;28;20234;-60
2022/12/20 04:18:16;;;;;;;0.40;0.40;;;14.00;72.70;;;;;;4973040;28;20204;-60
2022/12/20 04:21:05;;;;;;;0.93;0.93;;;14.00;72.70;;;;;;4973040;28;20208;-60
2022/12/20 04:23:54;;;;;;;0.40;0.40;;;14.00;72.70;;;;;;4972610;28;20673;-60
2022/12/20 04:26:42;;;;;;;0.40;0.40;;;14.00;72.60;;;;;;4972777;28;20711;-60
2022/12/20 04:29:32;;;;;;;0.50;0.50;;;14.00;72.80;;;;;;4973027;28;20279;-60
2022/12/20 04:32:20;;;;;;;0.40;0.40;;;14.00;72.80;;;;;;4973633;28;20294;-61
2022/12/20 04:35:09;;;;;;;0.40;0.40;;;14.00;72.70;;;;;;4972442;28;20256;-61
2022/12/20 04:37:57;;;;;;;0.60;0.60;;;14.00;72.70;;;;;;4972449;28;20317;-60
2022/12/20 04:40:45;;;;;;;0.40;0.40;;;14.00;73.00;;;;;;4973400;28;20436;-60
2022/12/20 04:43:33;;;;;;;0.40;0.40;;;14.00;72.80;;;;;;4972632;28;20204;-60
2022/12/20 04:46:23;;;;;;;0.40;0.40;;;14.00;72.90;;;;;;4972484;28;20219;-60
2022/12/20 04:49:11;;;;;;;0.40;0.40;;;14.10;73.00;;;;;;4972197;28;20204;-61
2022/12/20 04:53:46;;;;;;;0.40;0.40;;;14.00;72.90;;;;;;4973000;28;20206;-60
2022/12/20 04:55:07;;;;;;;0.40;0.40;;;13.90;72.90;;;;;;4974315;28;20219;-60
2022/12/20 04:57:55;;;;;;;0.40;0.40;;;13.90;72.90;;;;;;4990284;28;20203;-61
2022/12/20 05:00:52;;;;;;;0.40;0.40;;;13.90;73.00;;;;;;4990409;28;20203;-60
2022/12/20 05:03:42;;;;;;;0.40;0.40;;;14.10;73.50;;;;;;4984618;28;20709;-60
2022/12/20 05:06:30;;;;;;;0.40;0.40;;;13.90;73.20;;;;;;4973680;28;20291;-60
2022/12/20 05:09:18;;;;;;;0.40;0.40;;;13.90;73.20;;;;;;4973331;28;20693;-60
2022/12/20 05:12:06;;;;;;;0.40;0.40;;;13.90;73.20;;;;;;4972459;28;20685;-60
2022/12/20 05:14:55;;;;;;;0.40;0.40;;;13.80;73.30;;;;;;4973048;28;20243;-61
2022/12/20 05:17:43;;;;;;;0.60;0.60;;;13.80;73.40;;;;;;4973218;28;20638;-61
2022/12/20 05:20:32;;;;;;;0.40;0.40;;;13.90;73.50;;;;;;4973470;28;20290;-60
2022/12/20 05:26:28;;;;;;;0.40;0.40;;;13.90;73.50;;;;;;4972619;28;20224;-60
2022/12/20 05:29:16;;;;;;;0.40;0.40;;;13.90;73.50;;;;;;4973360;28;20695;-60
2022/12/20 05:32:04;;;;;;;0.40;0.40;;;13.90;73.50;;;;;;4976582;28;20299;-60
2022/12/20 05:34:53;;;;;;;0.40;0.40;;;13.90;73.30;;;;;;4976465;28;20263;-60
2022/12/20 05:37:42;;;;;;;0.40;0.40;;;14.00;73.30;;;;;;4976425;28;20239;-60
2022/12/20 05:40:30;;;;;;;0.40;0.40;;;14.00;73.30;;;;;;4976227;28;20279;-60
2022/12/20 05:43:19;;;;;;;0.40;0.40;;;14.10;73.20;;;;;;4976429;28;20730;-60
2022/12/20 05:46:07;;;;;;;0.40;0.40;;;14.10;73.20;;;;;;4976332;28;20256;-60
2022/12/20 05:48:55;;;;;;;0.40;0.40;;;14.10;73.10;;;;;;4976482;28;20731;-60
2022/12/20 05:51:43;;;;;;;0.40;0.40;;;14.10;73.10;;;;;;4975992;28;20200;-60
2022/12/20 05:54:33;;;;;;;0.40;0.40;;;14.10;73.10;;;;;;4975931;28;20232;-60
2022/12/20 05:57:21;;;;;;;0.47;0.47;;;14.10;73.10;;;;;;4975157;28;20289;-60
2022/12/20 06:00:11;;;;;;;0.40;0.40;;;14.00;73.00;;;;;;4975579;28;20335;-60
2022/12/20 06:02:59;;;;;;;0.40;0.40;;;14.00;73.00;;;;;;4975827;28;20207;-60
2022/12/20 06:05:48;;;;;;;0.40;0.40;;;14.00;73.10;;;;;;4976048;28;20228;-60
2022/12/20 06:08:36;;;;;;;0.40;0.40;;;14.10;73.30;;;;;;4976519;28;20203;-60
2022/12/20 06:11:25;;;;;;;0.40;0.40;;;14.00;73.20;;;;;;4976102;28;20592;-60
2022/12/20 06:14:17;;;;;;;0.40;0.40;;;14.00;74.10;;;;;;4976254;28;20583;-60
2022/12/20 06:17:05;;;;;;;0.40;0.40;;;13.90;73.40;;;;;;4976107;28;20302;-60
2022/12/20 06:19:53;;;;;;;0.40;0.40;;;14.00;73.50;;;;;;4975845;28;20204;-60
2022/12/20 06:22:41;;;;;;;0.63;0.63;;;14.00;73.50;;;;;;4976173;28;20231;-60
2022/12/20 06:25:29;;;;;;;0.40;0.40;;;14.00;73.50;;;;;;4975989;28;20706;-60
2022/12/20 06:28:20;;;;;;;0.40;0.40;;;14.10;74.20;;;;;;4976315;28;20656;-60
2022/12/20 06:31:10;;;;;;;3.40;3.22;;;14.10;73.30;;;;;;4976214;28;20320;-61
2022/12/20 06:33:58;;;;;;;0.40;0.40;;;14.20;73.30;;;;;;4976422;28;20207;-60
2022/12/20 06:36:46;;;;;;;0.40;0.40;;;14.30;74.00;;;;;;4975644;28;20243;-60
2022/12/20 06:39:34;;;;;;;3.70;2.00;;;14.30;73.10;;;;;;4975602;28;20251;-60
2022/12/20 06:42:22;;;;;;;0.40;0.40;;;14.40;73.00;;;;;;4975050;28;20685;-60
2022/12/20 06:45:12;;;;;;;0.40;0.40;;;;;;;;;;4975753;28;20680;-60
2022/12/20 06:48:00;;;;;;;0.40;0.40;;;14.40;72.30;;;;;;4974746;28;20632;-60
2022/12/20 06:50:49;;;;;;;0.40;0.40;;;14.40;72.80;;;;;;4975053;28;20200;-60
2022/12/20 06:53:43;;;;;;;0.40;0.40;;;14.50;73.00;;;;;;4975289;28;20286;-61
2022/12/20 06:56:31;;;;;;;0.40;0.40;;;14.50;72.90;;;;;;4974375;28;20306;-60
2022/12/20 06:59:27;;;;;;;0.70;0.70;;;14.50;72.80;;;;;;4975047;28;20211;-60
2022/12/20 07:02:17;;;;;;;0.40;0.40;;;14.50;72.80;;;;;;4975314;28;20342;-60
2022/12/20 07:05:06;;;;;;;0.40;0.40;;;14.50;72.90;;;;;;4975257;28;20204;-60
2022/12/20 07:07:54;;;;;;;0.40;0.40;;;14.50;72.80;;;;;;4975331;28;20196;-61
2022/12/20 07:10:42;;;;;;;1.20;1.10;;;14.50;72.90;;;;;;4974957;28;20331;-60
2022/12/20 07:13:30;;;;;;;0.40;0.40;;;14.50;72.90;;;;;;4975172;28;20575;-60
2022/12/20 07:16:19;;;;;;;0.40;0.40;;;14.40;73.00;;;;;;4975344;28;20314;-60
2022/12/20 07:19:10;;;;;;;0.40;0.40;;;14.40;73.10;;;;;;4974726;28;20232;-60
2022/12/20 07:21:58;;;;;;;0.40;0.40;;;14.40;73.20;;;;;;4974853;28;20259;-61
2022/12/20 07:24:47;;;;;;;0.40;0.40;;;14.30;73.10;;;;;;4975009;28;20211;-61
2022/12/20 07:27:35;;;;;;;0.40;0.40;;;14.40;73.30;;;;;;4974764;28;20217;-60
2022/12/20 07:30:24;;;;;;;0.50;0.50;;;14.20;73.30;;;;;;4974159;28;20607;-60
2022/12/20 07:33:13;;;;;;;0.40;0.40;;;14.20;73.50;;;;;;4973985;28;20204;-60
2022/12/20 07:36:05;;;;;;;0.40;0.40;;;14.20;73.50;;;;;;4974435;28;20330;-61
2022/12/20 07:38:53;;;;;;;0.40;0.40;;;14.10;73.70;;;;;;4974372;28;20622;-61
2022/12/20 07:41:41;;;;;;;0.40;0.40;;;14.20;73.90;;;;;;4975066;28;20287;-62
2022/12/20 07:44:29;;;;;;;0.50;0.50;;;14.20;73.90;;;;;;4974409;28;20204;-60
2022/12/20 07:47:17;;;;;;;0.40;0.40;;;14.40;73.80;;;;;;4974565;28;20302;-61
2022/12/20 07:50:06;;;;;;;0.40;0.40;;;14.60;73.50;;;;;;4974289;28;20780;-60
2022/12/20 07:52:57;;;;;;;0.40;0.40;;;14.80;73.30;;;;;;4973951;28;20204;-60
2022/12/20 07:55:45;;;;;;;0.40;0.40;;;14.90;73.10;;;;;;4974224;28;20310;-60
2022/12/20 07:58:36;;;;;;;0.40;0.40;;;15.00;72.80;;;;;;4974912;28;20619;-61
2022/12/20 08:01:25;;;;;;;0.40;0.40;;;15.10;72.60;;;;;;4974195;28;20556;-61
2022/12/20 08:04:18;;;;;;;0.40;0.40;;;15.20;72.50;;;;;;4974125;28;20695;-61
2022/12/20 08:07:07;;;;;;;0.50;0.50;;;15.30;72.40;;;;;;4972828;28;20779;-61
2022/12/20 08:09:56;;;;;;;0.40;0.40;;;15.30;72.10;;;;;;4973094;28;20204;-60
2022/12/20 08:12:46;;;;;;;0.70;0.70;;;15.40;72.10;;;;;;4973850;28;20279;-61
2022/12/20 08:15:35;;;;;;;0.40;0.40;;;15.40;72.00;;;;;;4973836;28;20323;-60
2022/12/20 08:18:23;;;;;;;1.35;1.35;;;15.40;72.70;;;;;;4973775;28;20204;-60
2022/12/20 08:21:11;;;;;;;0.40;0.40;;;15.50;72.00;;;;;;4973383;28;20212;-60
2022/12/20 08:24:00;;;;;;;0.40;0.40;;;15.40;72.00;;;;;;4973819;28;20208;-60
2022/12/20 08:26:49;;;;;;;0.50;0.50;;;15.40;72.00;;;;;;4973605;28;20716;-60
2022/12/20 08:29:37;;;;;;;0.45;0.45;;;15.40;72.10;;;;;;4973040;28;20278;-61
2022/12/20 08:32:25;;;;;;;0.50;0.50;;;15.30;72.00;;;;;;4973714;28;20215;-60
2022/12/20 08:35:13;;;;;;;0.40;0.40;;;15.30;72.20;;;;;;4973916;28;20612;-60
2022/12/20 08:38:01;;;;;;;0.40;0.40;;;15.30;72.30;;;;;;4973972;28;20304;-61
2022/12/20 08:40:49;;;;;;;0.57;0.57;;;15.20;72.30;;;;;;4973037;28;20211;-61
2022/12/20 08:43:40;;;;;;;0.40;0.40;;;15.20;72.50;;;;;;4974178;28;20227;-61
2022/12/20 08:46:28;;;;;;;0.40;0.40;;;15.20;72.60;;;;;;4973484;28;20270;-60
2022/12/20 08:49:16;;;;;;;0.40;0.40;;;15.10;72.70;;;;;;4973485;28;20212;-60
2022/12/20 08:52:04;;;;;;;0.82;0.82;;;15.10;72.80;;;;;;4974265;28;20346;-60
2022/12/20 08:54:52;;;;;;;0.40;0.40;;;15.00;72.90;;;;;;4973871;28;20292;-61
2022/12/20 08:57:40;;;;;;;0.40;0.40;;;15.00;73.20;;;;;;4973988;28;20224;-60
2022/12/20 09:00:30;;;;;;;0.68;0.68;;;14.90;73.20;;;;;;4981651;28;20275;-60
2022/12/20 09:03:18;;;;;;;0.45;0.45;;;14.90;74.10;;;;;;4977768;28;20202;-60
2022/12/20 09:06:08;;;;;;;1.10;1.10;;;14.80;73.50;;;;;;4980045;28;20593;-61
2022/12/20 09:08:56;;;;;;;0.40;0.40;;;14.80;73.40;;;;;;4981406;28;20207;-60
2022/12/20 09:11:44;;;;;;;0.40;0.40;;;14.80;73.60;;;;;;4980569;28;20214;-60
2022/12/20 09:14:32;;;;;;;0.40;0.40;;;14.80;73.80;;;;;;4979907;28;20278;-60
2022/12/20 09:17:21;;;;;;;0.40;0.40;;;14.70;73.70;;;;;;4979216;28;20231;-60
2022/12/20 09:20:10;;;;;;;1.25;1.25;;;14.70;73.80;;;;;;4979288;28;20282;-62
2022/12/20 09:22:58;;;;;;;0.40;0.40;;;14.70;74.00;;;;;;4978859;28;20239;-61
2022/12/20 09:25:46;;;;;;;0.40;0.40;;;14.70;74.10;;;;;;4979288;28;20323;-61
2022/12/20 09:28:41;;;;;;;0.40;0.40;;;14.70;74.20;;;;;;4979030;28;20247;-60
2022/12/20 09:31:29;;;;;;;0.40;0.40;;;14.60;74.20;;;;;;4978572;28;20215;-60
2022/12/20 09:34:19;;;;;;;0.40;0.40;;;14.60;74.40;;;;;;4978500;28;20696;-60
2022/12/20 09:37:07;;;;;;;0.50;0.50;;;14.50;74.40;;;;;;4978749;28;20228;-60
2022/12/20 09:39:55;;;;;;;0.40;0.40;;;14.50;74.50;;;;;;4978278;28;20302;-60
2022/12/20 09:42:43;;;;;;;0.40;0.40;;;14.50;74.60;;;;;;4978553;28;20204;-60
2022/12/20 09:45:36;;;;;;;0.40;0.40;;;14.40;79.30;;;;;;4977355;28;20200;-60
2022/12/20 09:48:28;;;;;;;0.40;0.40;;;14.40;74.80;;;;;;4976166;28;20254;-60
2022/12/20 09:51:29;;;;;;;0.40;0.40;;;14.40;74.80;;;;;;4977211;28;20311;-60
2022/12/20 09:54:30;;;;;;;0.40;0.40;;;14.40;75.00;;;;;;4977747;28;20203;-61
2022/12/20 09:57:27;;;;;;;0.40;0.40;;;14.40;75.10;;;;;;4976819;28;20500;-60
2022/12/20 10:00:18;;;;;;;0.40;0.40;;;14.40;75.00;;;;;;4976645;28;20204;-61
2022/12/20 10:03:13;;;;;;;0.40;0.40;;;14.40;75.20;;;;;;4976602;28;20204;-60
2022/12/20 10:06:13;;;;;;;0.77;0.77;;;14.40;75.10;;;;;;4977087;28;20234;-60
2022/12/20 10:09:05;;;;;;;0.50;0.50;;;14.40;75.00;;;;;;4977088;28;20231;-61
2022/12/20 10:12:03;;;;;;;0.40;0.40;;;14.40;75.00;;;;;;4975861;28;20600;-61
2022/12/20 10:15:07;;;;;;;0.40;0.40;;;14.50;75.20;;;;;;4977071;28;20278;-60
2022/12/20 10:18:15;;;;;;;0.40;0.40;;;14.50;75.40;;;;;;4977114;28;20251;-61
2022/12/20 10:21:10;;;;;;;0.40;0.40;;;14.50;75.20;;;;;;4977035;28;20212;-60
2022/12/20 10:24:01;;;;;;;0.40;0.40;;;14.50;75.30;;;;;;4977116;28;20211;-60
2022/12/20 10:26:52;;;;;;;0.40;0.40;;;14.50;75.10;;;;;;4977381;28;20704;-60
2022/12/20 10:29:40;;;;;;;0.40;0.40;;;14.60;75.20;;;;;;4976588;28;20259;-60
2022/12/20 10:32:29;;;;;;;0.40;0.40;;;14.60;75.20;;;;;;4976568;28;20296;-60
2022/12/20 10:35:25;;;;;;;0.40;0.40;;;14.60;75.20;;;;;;4976205;28;20693;-60
2022/12/20 10:38:16;;;;;;;0.40;0.40;;;14.60;75.20;;;;;;4976082;28;20231;-60
2022/12/20 10:41:05;;;;;;;0.40;0.40;;;14.60;75.20;;;;;;4975733;28;20240;-61
2022/12/20 10:44:19;;;;;;;0.40;0.40;;;14.60;75.30;;;;;;4975655;28;20199;-61
2022/12/20 10:47:29;;;;;;;0.40;0.40;;;14.60;75.30;;;;;;4976068;28;20901;-60
2022/12/20 10:50:20;;;;;;;0.40;0.40;;;14.60;75.40;;;;;;4975342;28;20286;-60
2022/12/20 10:53:21;;;;;;;0.40;0.40;;;14.60;75.50;;;;;;4975009;28;20697;-60
2022/12/20 10:56:17;;;;;;;0.40;0.40;;;14.50;75.50;;;;;;4975470;28;20227;-60
2022/12/20 10:59:29;;;;;;;0.40;0.40;;;14.50;75.60;;;;;;4975519;28;20279;-60
2022/12/20 11:02:29;;;;;;;0.40;0.40;;;14.50;75.60;;;;;;4975625;28;20200;-61
2022/12/20 11:05:27;;;;;;;0.40;0.40;;;14.80;75.60;;;;;;4975098;28;20231;-60
2022/12/20 11:08:17;;;;;;;0.40;0.40;;;14.50;75.70;;;;;;4975649;28;20200;-60
2022/12/20 11:11:25;;;;;;;0.40;0.40;;;14.40;75.70;;;;;;4974796;28;20196;-61
2022/12/20 11:14:15;;;;;;;0.40;0.40;;;14.40;75.80;;;;;;4975540;28;20200;-60
2022/12/20 11:17:19;;;;;;;0.40;0.40;;;14.40;75.90;;;;;;4975055;28;20645;-61
2022/12/20 11:20:25;;;;;;;0.40;0.40;;;14.40;75.90;;;;;;4975162;28;20200;-60
2022/12/20 11:23:22;;;;;;;0.40;0.40;;;14.40;76.00;;;;;;4975206;28;20595;-60
2022/12/20 11:26:29;;;;;;;0.40;0.40;;;14.40;76.20;;;;;;4974905;28;20354;-60
2022/12/20 11:29:34;;;;;;;0.40;0.40;;;14.40;76.90;;;;;;4974961;28;20740;-60
2022/12/20 11:32:34;;;;;;;0.40;0.40;;;14.40;76.10;;;;;;4975142;28;20231;-60
2022/12/20 11:35:27;;;;;;;0.40;0.40;;;14.50;75.70;;;;;;4975025;28;20721;-59
2022/12/20 11:38:29;;;;;;;0.40;0.40;;;14.50;76.10;;;;;;4974543;28;20222;-61
2022/12/20 11:41:23;;;;;;;2.83;2.63;;;14.60;75.40;;;;;;4973369;28;20200;-61
2022/12/20 11:44:22;;;;;;;0.40;0.40;;;14.60;75.90;;;;;;4974717;28;20200;-61
2022/12/20 11:47:40;;;;;;;0.40;0.40;;;14.70;75.80;;;;;;4974797;28;20230;-60
2022/12/20 11:50:39;;;;;;;0.40;0.40;;;14.70;75.70;;;;;;4973561;28;20287;-62
2022/12/20 11:53:34;;;;;;;0.50;0.50;;;14.80;75.80;;;;;;4974761;28;20279;-60
2022/12/20 11:56:29;;;;;;;0.40;0.40;;;14.80;75.70;;;;;;4975090;28;20224;-61
2022/12/20 11:59:26;;;;;;;0.40;0.40;;;14.80;75.60;;;;;;4974623;28;20216;-61
2022/12/20 12:02:20;;;;;;;0.40;0.40;;;14.80;75.50;;;;;;4974395;28;20200;-61
2022/12/20 12:05:20;;;;;;;0.40;0.40;;;14.90;75.60;;;;;;4972965;28;20223;-61
2022/12/20 12:08:14;;;;;;;0.40;0.40;;;14.90;75.50;;;;;;4973977;28;20207;-61
2022/12/20 12:11:12;;;;;;;0.40;0.40;;;14.90;75.50;;;;;;4972938;28;20211;-61
2022/12/20 12:14:31;;;;;;;0.40;0.40;;;14.90;75.50;;;;;;4974298;28;20204;-61
2022/12/20 12:17:26;;;;;;;0.40;0.40;;;14.90;75.50;;;;;;4973094;28;20220;-61
2022/12/20 12:20:25;;;;;;;0.40;0.40;;;14.90;75.60;;;;;;4973911;28;20286;-61
2022/12/20 12:23:18;;;;;;;0.90;0.90;;;14.80;75.50;;;;;;4973103;28;20287;-61
2022/12/20 12:26:12;;;;;;;0.40;0.40;;;14.80;75.50;;;;;;4974151;28;20227;-61
2022/12/20 12:29:03;;;;;;;1.30;1.20;;;14.80;75.60;;;;;;4974342;28;20627;-61
2022/12/20 12:31:57;;;;;;;0.50;0.50;;;14.80;75.70;;;;;;4973902;28;20284;-60
2022/12/20 12:34:59;;;;;;;0.40;0.40;;;14.80;75.80;;;;;;4974761;28;20204;-61
2022/12/20 12:38:00;;;;;;;0.40;0.40;;;14.70;75.80;;;;;;4973792;28;20199;-61
2022/12/20 12:41:19;;;;;;;0.40;0.40;;;14.70;75.90;;;;;;4979883;28;20274;-61
2022/12/20 12:44:31;;;;;;;1.95;1.85;;;14.70;76.10;;;;;;4968961;28;20214;-61
2022/12/20 12:47:23;;;;;;;0.40;0.40;;;14.70;76.10;;;;;;4980586;28;20286;-61
2022/12/20 12:50:27;;;;;;;0.40;0.40;;;14.70;76.90;;;;;;4980655;28;20661;-61
2022/12/20 12:53:20;;;;;;;0.40;0.40;;;14.70;76.20;;;;;;4980772;28;20199;-61
2022/12/20 12:56:39;;;;;;;0.40;0.40;;;14.70;76.30;;;;;;4979899;28;20222;-61
2022/12/20 12:59:50;;;;;;;0.40;0.40;;;14.70;76.30;;;;;;4926835;29;20615;-61
2022/12/20 13:02:51;;;;;;;0.40;0.40;;;14.70;76.40;;;;;;4996181;28;20199;-65
2022/12/20 13:05:40;;;;;;;0.40;0.40;;;14.70;76.40;;;;;;4994429;28;20233;-61
2022/12/20 13:08:48;;;;;;;0.40;0.40;;;14.70;76.40;;;;;;4982429;28;20283;-61
2022/12/20 13:11:38;;;;;;;0.40;0.40;;;14.70;76.40;;;;;;4980066;28;20214;-61
2022/12/20 13:14:52;;;;;;;0.40;0.40;;;14.80;76.50;;;;;;4980195;28;20195;-61
2022/12/20 13:17:49;;;;;;;0.40;0.40;;;14.80;76.50;;;;;;4980282;28;20204;-61
2022/12/20 13:20:38;;;;;;;0.40;0.40;;;14.80;76.50;;;;;;4979493;28;20282;-61
2022/12/20 13:23:26;;;;;;;0.40;0.40;;;14.80;76.50;;;;;;4979762;28;20581;-60
2022/12/20 13:26:50;;;;;;;0.40;0.40;;;14.80;76.50;;;;;;4980050;28;20307;-61
2022/12/20 13:29:52;;;;;;;0.40;0.40;;;14.80;76.40;;;;;;4979052;28;20270;-60
2022/12/20 13:33:23;;;;;;;0.40;0.40;;;14.70;76.40;;;;;;4979899;28;20200;-61
2022/12/20 13:36:34;;;;;;;0.40;0.40;;;14.80;76.50;;;;;;4979869;28;20223;-61
2022/12/20 13:39:36;;;;;;;0.40;0.40;;;14.70;76.60;;;;;;4979442;28;20723;-61
2022/12/20 13:42:38;;;;;;;0.50;0.50;;;14.70;76.60;;;;;;4979918;28;20236;-61
2022/12/20 13:45:26;;;;;;;0.40;0.40;;;14.70;76.50;;;;;;4978980;28;20290;-61
2022/12/20 13:48:18;;;;;;;0.40;0.40;;;14.60;76.70;;;;;;4979377;28;20204;-61
2022/12/20 13:51:07;;;;;;;0.70;0.70;;;14.70;76.90;;;;;;4977351;28;20275;-61
2022/12/20 13:53:58;;;;;;;0.40;0.40;;;14.60;76.80;;;;;;4976699;28;20287;-61
2022/12/20 13:56:48;;;;;;;0.40;0.40;;;14.60;76.90;;;;;;4976884;28;20359;-61
2022/12/20 13:59:38;;;;;;;0.40;0.40;;;14.60;77.00;;;;;;4976262;28;20299;-61
2022/12/20 14:02:30;;;;;;;0.40;0.40;;;14.60;77.10;;;;;;4976706;28;20251;-61
2022/12/20 14:05:25;;;;;;;1.85;1.17;;;14.60;77.10;;;;;;4976587;28;20696;-61
2022/12/20 14:08:16;;;;;;;0.40;0.40;;;14.70;77.20;;;;;;4976570;28;20286;-61
2022/12/20 14:11:08;;;;;;;0.40;0.40;;;14.60;77.10;;;;;;4976625;28;20277;-61
2022/12/20 14:13:59;;;;;;;0.40;0.40;;;14.70;77.20;;;;;;4976924;28;20240;-61
2022/12/20 14:16:48;;;;;;;0.40;0.40;;;14.70;77.10;;;;;;4976140;28;20251;-61
2022/12/20 14:19:36;;;;;;;0.40;0.40;;;14.70;76.90;;;;;;4976028;28;20224;-61
2022/12/20 14:22:24;;;;;;;0.40;0.40;;;14.70;76.80;;;;;;4974963;28;20299;-61
2022/12/20 14:25:17;;;;;;;0.40;0.40;;;14.80;77.20;;;;;;4975565;28;20593;-61
2022/12/20 14:28:14;;;;;;;0.40;0.40;;;14.80;77.50;;;;;;4975300;28;20263;-61
2022/12/20 14:31:23;;;;;;;0.40;0.40;;;14.90;77.80;;;;;;4975389;28;20228;-61
2022/12/20 14:34:18;;;;;;;0.40;0.40;;;14.90;77.90;;;;;;4976539;28;20204;-61
2022/12/20 14:37:27;;;;;;;0.40;0.40;;;14.90;78.00;;;;;;4976577;28;20271;-61
2022/12/20 14:40:19;;;;;;;0.40;0.40;;;14.90;78.00;;;;;;4974450;28;20343;-61
2022/12/20 14:43:15;;;;;;;0.50;0.50;;;14.90;78.10;;;;;;4976241;28;20204;-61
2022/12/20 14:46:08;;;;;;;0.40;0.40;;;14.90;78.30;;;;;;4990886;28;20208;-62
2022/12/20 14:49:17;;;;;;;0.40;0.40;;;14.90;78.30;;;;;;4976189;28;20204;-62
2022/12/20 14:52:14;;;;;;;0.40;0.40;;;14.90;78.50;;;;;;4976323;28;20580;-63
2022/12/20 14:55:07;;;;;;;0.40;0.40;;;14.90;78.50;;;;;;4974766;28;20235;-62
2022/12/20 14:57:58;;;;;;;0.40;0.40;;;14.90;78.70;;;;;;4970630;28;20212;-62
2022/12/20 15:00:56;;;;;;;0.40;0.40;;;14.90;78.70;;;;;;4974974;28;20234;-62
2022/12/20 15:03:50;;;;;;;0.40;0.40;;;14.90;78.80;;;;;;4975325;28;20211;-63
2022/12/20 15:06:43;;;;;;;0.40;0.40;;;14.90;78.80;;;;;;4973845;28;20240;-62